Latest Weather Observations for Lockhart River

IDQ60801

Issued at 4:32 am EST Monday 24 July 2017 (issued every 30 minutes, with the page automatically refreshed every 10 minutes)

About weather observations | Map of weather stations | Latest weather observations for QLD | Other Formats
Station Details ID: 028008 Name: LOCKHART RIVER AIRPORT Lat: -12.79 Lon: 143.30 Height: 18.5 m
Data from the previous 72 hours. | See also: Recent months at Lockhart River
Date/Time
EST
Temp
°C
App
Temp
°C
Dew
Point
°C
Rel
Hum
%
Delta-T
°C
Wind Press
QNH
hPa
Press
MSL
hPa
Rain since
9am
mm
Dir  Spd
km/h
Gust
km/h
Spd
kts
Gust
kts
24/04:30am 24.2 24.7 20.9 82 2.2 SE 19 26 10 14 1013.7 1013.7 0.2
24/04:00am 24.4 24.8 20.9 81 2.3 SE 20 28 11 15 1013.7 1013.7 0.2
24/03:30am 24.3 25.3 21.0 82 2.2 SE 17 26 9 14 1013.6 1013.6 0.2
24/03:00am 24.1 25.1 21.0 83 2.0 SE 17 24 9 13 1013.6 1013.6 0.2
24/02:30am 24.1 24.4 20.8 82 2.2 SE 20 32 11 17 1013.8 1013.8 0.2
24/02:00am 24.1 24.5 21.0 83 2.0 SE 20 30 11 16 1014.1 1014.1 0.2
24/01:30am 24.1 25.2 21.2 84 1.9 ESE 17 22 9 12 1014.4 1014.4 0.2
24/01:00am 24.3 25.0 21.2 83 2.0 SE 19 28 10 15 1014.6 1014.6 0.2
24/12:30am 24.2 24.8 21.3 84 1.9 SE 20 26 11 14 1015.0 1015.0 0.2
24/12:20am 24.2 24.3 21.1 83 2.0 SE 22 32 12 17 1015.1 1015.1 0.2
24/12:03am 24.4 24.5 21.1 82 2.2 SE 22 32 12 17 1015.3 1015.3 0.2
24/12:00am 24.4 24.5 21.1 82 2.2 SE 22 30 12 16 1015.3 1015.3 0.2
 
Date/Time
EST
Temp
°C
App
Temp
°C
Dew
Point
°C
Rel
Hum
%
Delta-T
°C
Wind Press
QNH
hPa
Press
MSL
hPa
Rain since
9am
mm
Dir  Spd
km/h
Gust
km/h
Spd
kts
Gust
kts
23/11:30pm 24.1 25.1 21.0 83 2.0 SE 17 22 9 12 1015.6 1015.6 0.2
23/11:00pm 23.8 24.4 21.1 85 1.8 SE 19 26 10 14 1015.6 1015.6 0.2
23/10:30pm 23.8 24.7 20.9 84 1.9 SE 17 26 9 14 1015.5 1015.5 0.2
23/10:00pm 24.2 24.7 20.9 82 2.2 SE 19 26 10 14 1015.3 1015.3 0.2
23/09:30pm 24.1 24.4 20.8 82 2.2 SE 20 28 11 15 1015.2 1015.2 0.2
23/09:00pm 24.4 24.9 20.9 81 2.3 SE 19 24 10 13 1015.0 1015.0 0.2
23/08:30pm 24.4 24.8 20.9 81 2.3 SE 20 30 11 16 1014.8 1014.8 0.2
23/08:00pm 24.4 24.7 20.7 80 2.4 SE 20 30 11 16 1014.4 1014.4 0.2
23/07:30pm 24.6 23.6 20.5 78 2.7 SE 26 39 14 21 1014.1 1014.1 0.2
23/07:00pm 24.8 24.2 20.5 77 2.8 SE 24 35 13 19 1013.6 1013.6 0.2
23/06:30pm 25.0 24.2 20.0 74 3.2 SE 24 39 13 21 1013.2 1013.2 0.2
23/06:00pm 25.2 23.7 20.2 74 3.3 SE 28 35 15 19 1013.0 1013.0 0.2
23/05:30pm 25.5 24.8 20.3 73 3.4 SE 24 35 13 19 1013.0 1013.0 0.2
23/05:00pm 25.7 24.1 20.0 71 3.7 SE 28 44 15 24 1012.8 1012.8 0.2
23/04:30pm 26.8 25.7 20.2 67 4.3 SE 26 39 14 21 1012.6 1012.6 0.2
23/04:00pm 26.6 25.0 20.0 67 4.3 SE 28 37 15 20 1012.7 1012.7 0.2
23/03:30pm 26.7 24.6 19.8 66 4.5 SE 30 39 16 21 1012.9 1012.9 0.2
23/03:00pm 27.3 25.3 19.9 64 4.8 SE 30 41 16 22 1013.1 1013.1 0.2
23/02:30pm 27.4 25.6 19.5 62 5.1 SE 28 41 15 22 1013.4 1013.4 0.2
23/02:05pm 27.8 25.4 19.1 59 5.6 ESE 30 48 16 26 1013.5 1013.5 0.2
23/02:00pm 27.8 24.9 19.3 60 5.5 SE 33 48 18 26 1013.5 1013.5 0.2
23/01:30pm 27.6 25.9 19.9 63 5.0 ESE 28 43 15 23 1014.1 1014.1 0.2
23/01:00pm 27.2 25.8 20.5 67 4.4 ESE 28 41 15 22 1014.4 1014.4 0.2
23/12:30pm 28.1 25.9 20.4 63 5.1 SE 32 44 17 24 1014.9 1014.9 0.2
23/12:00pm 27.1 25.9 20.9 69 4.1 ESE 28 41 15 22 1015.4 1015.4 0.2
23/11:30am 26.9 25.6 19.8 65 4.6 ESE 26 37 14 20 1015.8 1015.8 0.2
23/11:00am 27.0 26.2 20.1 66 4.5 ESE 24 39 13 21 1015.9 1015.9 0.2
23/10:51am 27.2 25.0 20.3 66 4.5 SE 32 50 17 27 1016.0 1016.0 0.2
23/10:30am 26.6 24.8 20.4 69 4.1 SE 30 43 16 23 1016.0 1016.0 0.2
23/10:00am 26.5 25.9 20.6 70 3.9 ESE 24 37 13 20 1016.0 1016.0 0.0
23/09:30am 24.9 24.3 20.4 76 2.9 ESE 24 44 13 24 1016.3 1016.3 0.0
23/09:00am 25.6 25.2 20.2 72 3.5 ESE 22 41 12 22 1016.0 1016.0 -
23/08:30am 24.6 24.9 20.3 77 2.8 ESE 19 30 10 16 1015.7 1015.7 -
23/08:00am 24.7 24.9 20.2 76 2.9 ESE 19 32 10 17 1015.4 1015.4 -
23/07:30am 24.2 23.4 20.1 78 2.7 SE 24 33 13 18 1015.0 1015.0 -
23/07:00am 23.6 24.0 20.7 84 1.9 SE 19 28 10 15 1014.7 1014.7 -
23/06:30am 23.6 23.9 20.3 82 2.1 SE 19 24 10 13 1014.3 1014.3 -
23/06:00am 23.5 24.2 20.4 83 2.0 SE 17 26 9 14 1014.1 1014.1 -
23/05:30am 23.6 24.0 19.9 80 2.4 SE 17 24 9 13 1013.8 1013.8 -
23/05:00am 23.6 23.4 19.7 79 2.5 SE 20 26 11 14 1013.6 1013.6 -
23/04:30am 23.5 23.0 20.0 81 2.3 SE 22 33 12 18 1013.4 1013.4 -
23/04:00am 23.6 23.9 20.3 82 2.1 SE 19 30 10 16 1013.4 1013.4 -
23/03:30am 23.4 24.0 20.2 82 2.1 SE 17 24 9 13 1013.5 1013.5 -
23/03:00am 23.8 23.4 20.1 80 2.4 SE 22 30 12 16 1013.9 1013.9 0.0
23/02:30am 23.9 23.5 20.2 80 2.4 SE 22 33 12 18 1014.2 1014.2 -
23/02:00am 24.0 23.7 20.3 80 2.4 SE 22 28 12 15 1014.5 1014.5 -
23/01:30am 23.9 24.1 20.6 82 2.2 SE 20 33 11 18 1015.0 1015.0 -
23/01:00am 24.1 24.2 20.4 80 2.4 SE 20 30 11 16 1014.9 1014.9 -
23/12:30am 23.8 24.5 20.5 82 2.1 SE 17 26 9 14 1015.0 1015.0 -
23/12:00am 23.8 24.0 20.5 82 2.1 SE 20 30 11 16 1015.2 1015.2 -
 
Date/Time
EST
Temp
°C
App
Temp
°C
Dew
Point
°C
Rel
Hum
%
Delta-T
°C
Wind Press
QNH
hPa
Press
MSL
hPa
Rain since
9am
mm
Dir  Spd
km/h
Gust
km/h
Spd
kts
Gust
kts
22/11:30pm 23.9 23.3 20.6 82 2.2 SE 24 32 13 17 1015.4 1015.4 -
22/11:00pm 23.5 24.5 21.0 86 1.6 ESE 17 26 9 14 1015.6 1015.6 -
22/10:30pm 23.7 23.8 21.2 86 1.6 SE 22 30 12 16 1015.7 1015.7 -
22/10:00pm 24.2 24.5 20.7 81 2.3 ESE 20 32 11 17 1015.7 1015.7 -
22/09:30pm 24.3 22.9 20.4 79 2.5 SE 28 43 15 23 1015.7 1015.7 -
22/09:00pm 24.1 24.1 21.0 83 2.0 SE 22 32 12 17 1015.3 1015.3 0.0
22/08:30pm 23.7 24.3 21.4 87 1.5 SE 20 28 11 15 1015.2 1015.2 -
22/08:00pm 23.7 23.2 20.8 84 1.9 ESE 24 33 13 18 1014.9 1014.9 -
22/07:30pm 24.1 23.9 20.6 81 2.3 SE 22 32 12 17 1014.6 1014.6 -
22/07:00pm 24.0 24.1 20.3 80 2.4 SE 20 30 11 16 1014.3 1014.3 -
22/06:30pm 24.3 23.7 20.4 79 2.5 SE 24 33 13 18 1014.0 1014.0 -
22/06:00pm 24.6 23.8 20.1 76 2.9 SE 24 33 13 18 1013.9 1013.9 -
22/05:30pm 25.0 24.3 20.3 75 3.1 SE 24 35 13 19 1013.6 1013.6 -
22/05:00pm 25.0 24.6 20.9 78 2.7 SE 24 35 13 19 1013.4 1013.4 -
22/04:30pm 25.4 24.7 20.2 73 3.4 SE 24 39 13 21 1013.2 1013.2 -
22/04:00pm 25.8 25.0 20.1 71 3.7 SE 24 33 13 18 1013.2 1013.2 -
22/03:30pm 26.5 23.9 19.6 66 4.5 SE 32 43 17 23 1013.1 1013.1 -
22/03:00pm 26.5 25.5 19.6 66 4.5 ESE 24 35 13 19 1013.3 1013.3 -
22/02:30pm 27.1 24.0 18.9 61 5.3 SE 33 50 18 27 1013.5 1013.5 -
22/02:00pm 27.5 25.4 19.8 63 5.0 ESE 30 46 16 25 1013.7 1013.7 -
22/01:30pm 27.6 25.9 19.9 63 5.0 ESE 28 41 15 22 1014.2 1014.2 -
22/01:20pm 27.0 24.8 19.6 64 4.8 SE 30 48 16 26 1014.3 1014.3 -
22/01:00pm 27.6 26.8 20.9 67 4.4 ESE 26 39 14 21 1014.6 1014.6 -
22/12:30pm 27.0 25.6 19.6 64 4.8 ESE 26 37 14 20 1014.7 1014.7 -
22/12:00pm 26.9 25.6 19.8 65 4.6 ESE 26 41 14 22 1015.2 1015.2 -
22/11:30am 26.7 25.9 20.1 67 4.3 ESE 24 41 13 22 1015.5 1015.5 -
22/11:00am 26.5 25.9 20.6 70 3.9 ESE 24 37 13 20 1015.9 1015.9 -
22/10:30am 25.8 24.5 20.6 73 3.4 SE 28 39 15 21 1016.2 1016.2 -
22/10:00am 25.7 25.3 20.9 75 3.2 ESE 24 35 13 19 1016.3 1016.3 -
22/09:30am 26.3 25.7 20.6 71 3.7 ESE 24 39 13 21 1016.3 1016.3 -
22/09:00am 26.4 26.2 20.5 70 3.9 ESE 22 35 12 19 1016.0 1016.0 0.0
22/08:30am 25.5 25.8 20.3 73 3.4 ESE 19 26 10 14 1015.9 1015.9 0.0
22/08:00am 24.2 24.5 20.5 80 2.4 SE 19 26 10 14 1015.8 1015.8 0.0
22/07:30am 23.9 24.9 20.2 80 2.4 SE 15 20 8 11 1015.5 1015.5 0.0
22/07:00am 23.3 24.1 19.9 81 2.2 SE 15 20 8 11 1015.2 1015.2 0.0
22/06:30am 23.3 24.2 20.1 82 2.1 SE 15 22 8 12 1014.9 1014.9 0.0
22/06:00am 23.3 24.2 20.1 82 2.1 SE 15 20 8 11 1014.6 1014.6 0.0
22/05:30am 23.2 23.6 19.8 81 2.2 SE 17 20 9 11 1014.3 1014.3 0.0
22/05:00am 23.4 23.4 19.8 80 2.3 SE 19 28 10 15 1014.1 1014.1 0.0
22/04:30am 23.3 23.6 19.7 80 2.3 SE 17 24 9 13 1014.0 1014.0 0.0
22/04:00am 23.1 23.8 19.7 81 2.2 SE 15 24 8 13 1013.8 1013.8 0.0
22/03:30am 23.4 23.8 19.8 80 2.3 SE 17 26 9 14 1013.7 1013.7 0.0
22/03:00am 23.4 23.4 19.8 80 2.3 SE 19 24 10 13 1013.9 1013.9 0.0
22/02:30am 23.2 23.6 19.8 81 2.2 SE 17 24 9 13 1014.2 1014.2 0.0
22/02:00am 23.4 23.8 19.8 80 2.3 SE 17 24 9 13 1014.4 1014.4 0.0
22/01:30am 23.1 23.4 19.7 81 2.2 SE 17 26 9 14 1014.7 1014.7 0.0
22/01:00am 23.0 24.2 19.8 82 2.1 SSE 13 17 7 9 1015.0 1015.0 0.0
22/12:30am 23.1 23.8 19.7 81 2.2 SE 15 22 8 12 1015.3 1015.3 0.0
22/12:00am 23.4 24.2 19.8 80 2.3 SE 15 22 8 12 1015.6 1015.6 0.0
 
Date/Time
EST
Temp
°C
App
Temp
°C
Dew
Point
°C
Rel
Hum
%
Delta-T
°C
Wind Press
QNH
hPa
Press
MSL
hPa
Rain since
9am
mm
Dir  Spd
km/h
Gust
km/h
Spd
kts
Gust
kts
21/11:30pm 23.5 23.9 19.8 80 2.4 SE 17 22 9 12 1015.7 1015.7 0.0
21/11:00pm 23.8 24.3 20.1 80 2.4 SE 17 24 9 13 1015.7 1015.7 0.0
21/10:30pm 23.8 23.9 19.9 79 2.5 SE 19 26 10 14 1015.9 1015.9 0.0
21/10:00pm 23.8 25.1 20.1 80 2.4 ESE 13 20 7 11 1016.1 1016.1 0.0
21/09:30pm 24.0 24.3 19.7 77 2.8 ESE 17 26 9 14 1016.0 1016.0 0.0
21/09:00pm 24.3 24.8 20.0 77 2.8 ESE 17 26 9 14 1015.9 1015.9 0.0
21/08:30pm 24.1 24.1 19.8 77 2.8 SE 19 30 10 16 1015.5 1015.5 0.0
21/08:00pm 24.3 24.3 19.8 76 2.9 SE 19 28 10 15 1015.2 1015.2 0.0
21/07:30pm 24.4 24.8 19.9 76 2.9 SE 17 28 9 15 1014.7 1014.7 0.0
21/07:00pm 24.4 25.1 19.7 75 3.0 SE 15 19 8 10 1014.4 1014.4 0.0
21/06:30pm 24.6 24.4 19.7 74 3.2 SSE 20 30 11 16 1014.1 1014.1 0.0
21/06:00pm 24.7 24.6 19.5 73 3.3 SE 19 32 10 17 1013.9 1013.9 0.0
21/05:30pm 25.2 25.0 19.8 72 3.5 SE 20 28 11 15 1013.7 1013.7 0.0
21/05:00pm 25.4 25.2 19.8 71 3.6 SE 20 30 11 16 1013.5 1013.5 0.0
21/04:30pm 25.4 24.6 20.0 72 3.5 SE 24 32 13 17 1013.3 1013.3 0.0
21/04:00pm 25.9 25.8 20.0 70 3.8 ESE 20 33 11 18 1013.0 1013.0 0.0
21/03:30pm 26.0 24.9 19.4 67 4.3 ESE 24 32 13 17 1013.0 1013.0 0.0
21/03:00pm 26.9 26.6 20.3 67 4.3 ESE 22 35 12 19 1012.9 1012.9 0.0
21/02:30pm 27.0 26.1 19.1 62 5.1 ESE 22 35 12 19 1013.1 1013.1 0.0
21/02:00pm 27.5 25.8 19.8 63 5.0 SE 28 41 15 22 1013.4 1013.4 0.0
21/01:30pm 27.7 25.7 20.0 63 5.0 SE 30 44 16 24 1013.7 1013.7 0.0
21/01:00pm 27.5 24.8 19.3 61 5.3 SE 32 48 17 26 1014.1 1014.1 0.0
21/12:54pm 27.7 26.1 20.0 63 5.0 SE 28 48 15 26 1014.2 1014.2 0.0
21/12:30pm 27.4 25.3 18.9 59 5.5 SE 28 43 15 23 1014.7 1014.7 0.0
21/12:00pm 26.7 25.5 20.1 67 4.3 SE 26 41 14 22 1015.0 1015.0 0.0
21/11:30am 25.7 24.3 20.5 73 3.4 ESE 28 41 15 22 1015.4 1015.4 0.0
21/11:17am 26.3 26.4 21.1 73 3.4 SE 22 32 12 17 1015.4 1015.4 0.0
21/11:00am 26.3 27.8 23.0 82 2.2 SE 20 30 11 16 1015.6 1015.6 0.0
21/10:30am 24.0 25.7 22.4 91 1.1 SE 17 24 9 13 1015.8 1015.8 0.0
21/10:07am 23.6 24.7 21.3 87 1.5 SE 17 24 9 13 1015.7 1015.7 0.0
21/10:00am 23.9 24.6 21.2 85 1.8 SSE 19 28 10 15 1015.7 1015.7 0.0
21/09:30am 25.2 25.7 20.9 77 2.8 SE 19 28 10 15 1015.4 1015.4 0.0
21/09:00am 26.0 26.5 21.2 75 3.2 SE 20 28 11 15 1015.4 1015.4 0.0
21/08:30am 24.8 25.1 20.5 77 2.8 SE 19 28 10 15 1015.2 1015.2 0.0
21/08:00am 23.5 25.8 20.6 84 1.9 S 9 13 5 7 1014.8 1014.8 0.0
21/07:30am 23.5 24.7 20.0 81 2.3 SSE 13 17 7 9 1014.1 1014.1 0.0
21/07:00am 23.0 25.1 20.1 84 1.9 SE 9 15 5 8 1013.8 1013.8 0.0
21/06:30am 22.7 24.3 19.9 84 1.8 SE 11 13 6 7 1013.4 1013.4 0.0
21/06:00am 22.7 24.2 19.7 83 1.9 SE 11 15 6 8 1013.0 1013.0 0.0
21/05:30am 23.1 23.8 19.7 81 2.2 SE 15 24 8 13 1012.8 1012.8 0.0
21/05:00am 23.1 23.7 19.5 80 2.3 SE 15 20 8 11 1012.5 1012.5 0.0

Other Formats:

Comma delimited format used in spreadsheet applications
http://www.bom.gov.au/fwo/IDQ60801/IDQ60801.94186.axf

JavaScript Object Notation format (JSON) in row-major order
http://www.bom.gov.au/fwo/IDQ60801/IDQ60801.94186.json